Time;durP1;ratioP1;P1;durP2;ratioP2;P2;SDS_P1;SDS_P2;PMS_P1;PMS_P2;Temp;Humidity;BMP_temperature;BMP_pressure;BME280_temperature;BME280_humidity;BME280_pressure;Samples;Min_cycle;Max_cycle;Signal;HPM_P1;HPM_P2
2022/07/25 00:00:45;;;;;;;10.25;6.37;;;;;;;15.12;76.54;100600.26;1707425;84;25663;-68
2022/07/25 00:03:11;;;;;;;7.95;6.60;;;;;;;15.10;76.66;100601.95;1707494;84;25556;-68
2022/07/25 00:05:37;;;;;;;10.23;7.15;;;;;;;15.11;76.97;100602.16;1707402;84;28115;-68
2022/07/25 00:08:05;;;;;;;9.85;7.00;;;;;;;15.09;77.01;100604.43;1707421;84;25611;-68
2022/07/25 00:10:31;;;;;;;8.65;6.80;;;;;;;15.07;77.02;100595.80;1707350;84;25857;-68
2022/07/25 00:12:57;;;;;;;7.08;6.30;;;;;;;15.07;77.39;100597.73;1707421;83;25563;-68
2022/07/25 00:15:23;;;;;;;7.97;6.10;;;;;;;15.06;77.35;100597.48;1707497;83;25498;-68
2022/07/25 00:17:49;;;;;;;7.62;6.53;;;;;;;15.06;77.03;100589.31;1707440;84;27335;-68
2022/07/25 00:20:15;;;;;;;6.75;5.95;;;;;;;15.06;77.19;100579.78;1689016;84;25426;-68
2022/07/25 00:22:42;;;;;;;11.05;7.20;;;;;;;15.06;77.69;100578.42;1707467;83;25490;-68
2022/07/25 00:25:09;;;;;;;7.47;5.78;;;;;;;15.03;77.40;100582.59;1707420;83;25607;-68
2022/07/25 00:27:35;;;;;;;8.78;5.55;;;;;;;15.01;77.30;100579.98;1707465;84;25614;-68
2022/07/25 00:30:02;;;;;;;6.55;5.90;;;;;;;15.01;77.41;100584.06;1707455;84;27288;-69
2022/07/25 00:32:28;;;;;;;7.22;5.78;;;;;;;15.02;77.27;100579.66;1707375;83;25625;-68
2022/07/25 00:34:54;;;;;;;9.25;6.47;;;;;;;15.03;77.33;100576.35;1707429;84;25424;-69
2022/07/25 00:37:21;;;;;;;6.47;5.78;;;;;;;15.02;77.23;100577.50;1688983;84;26345;-68
2022/07/25 00:39:47;;;;;;;6.62;5.97;;;;;;;14.99;77.00;100576.22;1707492;83;25476;-68
2022/07/25 00:42:13;;;;;;;7.17;6.47;;;;;;;14.97;76.93;100573.04;1707416;84;27374;-68
2022/07/25 00:44:39;;;;;;;7.08;6.42;;;;;;;14.93;76.78;100563.38;1707350;83;25400;-68
2022/07/25 00:47:06;;;;;;;7.37;6.37;;;;;;;14.92;77.04;100556.89;1707408;83;25395;-68
2022/07/25 00:49:32;;;;;;;7.80;5.87;;;;;;;14.87;76.64;100555.16;1707378;84;25851;-68
2022/07/25 00:51:58;;;;;;;7.90;6.33;;;;;;;14.84;76.62;100550.38;1707452;84;25550;-68
2022/07/25 00:54:24;;;;;;;6.83;5.40;;;;;;;14.81;76.83;100552.39;1707458;83;28117;-68
2022/07/25 00:56:51;;;;;;;7.78;7.00;;;;;;;14.78;76.83;100553.61;1707319;83;25554;-68
2022/07/25 00:59:18;;;;;;;7.45;6.62;;;;;;;14.74;76.90;100547.50;1707414;84;25573;-68
2022/07/25 01:01:46;;;;;;;6.78;6.12;;;;;;;14.70;76.79;100544.39;1707404;84;26352;-68
2022/07/25 01:04:14;;;;;;;6.80;6.17;;;;;;;14.67;76.79;100554.00;1707430;83;25405;-68
2022/07/25 01:06:41;;;;;;;8.25;6.15;;;;;;;14.64;76.95;100556.05;1707384;83;27329;-69
2022/07/25 01:09:07;;;;;;;6.90;6.28;;;;;;;14.60;77.06;100564.62;1707389;83;25616;-68
2022/07/25 01:11:33;;;;;;;7.25;6.55;;;;;;;14.56;77.30;100567.75;1703741;84;25412;-68
2022/07/25 01:13:59;;;;;;;9.88;6.17;;;;;;;14.49;77.35;100569.63;1702390;84;25570;-68
2022/07/25 01:16:25;;;;;;;7.70;6.65;;;;;;;14.45;77.54;100565.16;1702474;84;25570;-69
2022/07/25 01:18:52;;;;;;;7.83;6.67;;;;;;;14.42;77.63;100563.91;1702430;83;28121;-68
2022/07/25 01:21:18;;;;;;;7.20;6.50;;;;;;;14.39;77.82;100559.91;1702265;83;25415;-68
2022/07/25 01:23:44;;;;;;;8.20;6.87;;;;;;;14.35;77.65;100562.23;1702352;84;25570;-68
2022/07/25 01:26:10;;;;;;;10.88;6.70;;;;;;;14.27;77.64;100559.81;1702242;84;26281;-69
2022/07/25 01:28:36;;;;;;;10.03;6.95;;;;;;;14.23;77.80;100564.29;1702385;84;25624;-69
2022/07/25 01:31:03;;;;;;;8.65;6.80;;;;;;;14.17;77.98;100555.52;1702352;84;28121;-69
2022/07/25 01:33:29;;;;;;;8.80;7.08;;;;;;;14.13;78.14;100557.31;1702226;84;25859;-69
2022/07/25 01:35:56;;;;;;;7.62;6.67;;;;;;;14.10;78.38;100557.96;1702284;83;25636;-69
2022/07/25 01:38:22;;;;;;;6.75;6.15;;;;;;;14.11;78.32;100556.03;1702311;83;25617;-69
2022/07/25 01:40:48;;;;;;;7.60;6.80;;;;;;;14.09;78.35;100552.27;1702339;84;25436;-69
2022/07/25 01:43:14;;;;;;;9.05;6.58;;;;;;;14.08;78.41;100554.77;1702351;84;27522;-69
2022/07/25 01:45:40;;;;;;;8.48;6.58;;;;;;;14.06;78.17;100553.48;1702225;84;25587;-69
2022/07/25 01:48:07;;;;;;;8.45;6.58;;;;;;;14.06;78.20;100554.84;1702349;84;25645;-69
2022/07/25 01:50:34;;;;;;;7.10;6.37;;;;;;;14.04;78.03;100549.73;1702293;84;26234;-69
2022/07/25 01:53:00;;;;;;;8.05;7.25;;;;;;;14.01;77.98;100547.12;1702351;83;25648;-69
2022/07/25 01:55:26;;;;;;;7.97;7.17;;;;;;;13.98;77.93;100545.05;1702354;84;27305;-69
2022/07/25 01:57:52;;;;;;;7.55;6.78;;;;;;;13.95;77.99;100537.53;1702211;84;25576;-69
2022/07/25 02:00:19;;;;;;;7.42;6.62;;;;;;;13.92;78.04;100547.69;1702319;84;25565;-69
2022/07/25 02:02:46;;;;;;;7.62;6.83;;;;;;;13.89;78.17;100541.54;1702363;84;25678;-69
2022/07/25 02:05:14;;;;;;;7.58;6.87;;;;;;;13.86;78.23;100542.75;1702285;84;25384;-69
2022/07/25 02:07:41;;;;;;;8.73;7.10;;;;;;;13.80;78.17;100544.86;1702554;83;27406;-69
2022/07/25 02:10:08;;;;;;;7.53;6.83;;;;;;;13.73;78.26;100542.64;1702244;83;25754;-68
2022/07/25 02:12:34;;;;;;;8.35;7.33;;;;;;;13.68;78.38;100546.89;1697536;84;25432;-67
2022/07/25 02:15:00;;;;;;;7.10;6.40;;;;;;;13.62;78.33;100546.27;1697513;84;25685;-68
2022/07/25 02:17:26;;;;;;;7.15;6.45;;;;;;;13.58;78.24;100554.02;1697486;84;25391;-68
2022/07/25 02:19:52;;;;;;;6.87;6.17;;;;;;;13.56;78.33;100543.47;1697548;84;27428;-68
2022/07/25 02:22:18;;;;;;;10.08;6.90;;;;;;;13.55;78.73;100547.87;1697448;84;25399;-68
2022/07/25 02:24:44;;;;;;;8.18;7.10;;;;;;;13.54;79.07;100540.86;1697535;84;25653;-68
2022/07/25 02:27:11;;;;;;;7.65;6.45;;;;;;;13.52;79.12;100544.43;1697442;84;26305;-69
2022/07/25 02:29:37;;;;;;;8.35;6.95;;;;;;;13.49;78.93;100552.69;1697645;84;25455;-69
2022/07/25 02:32:05;;;;;;;7.97;6.85;;;;;;;13.47;78.74;100553.57;1677559;84;28133;-68
2022/07/25 02:34:31;;;;;;;9.98;6.85;;;;;;;13.47;79.08;100548.67;1697462;84;25594;-69
2022/07/25 02:36:57;;;;;;;8.33;7.12;;;;;;;13.44;79.14;100546.84;1697507;84;29659;-69
2022/07/25 02:39:24;;;;;;;7.80;6.85;;;;;;;13.44;79.14;100553.64;1697448;84;25695;-68
2022/07/25 02:41:50;;;;;;;8.53;6.62;;;;;;;13.41;78.96;100552.92;1697571;84;25590;-69
2022/07/25 02:44:16;;;;;;;6.97;6.35;;;;;;;13.41;79.10;100554.84;1697514;84;28049;-69
2022/07/25 02:46:42;;;;;;;8.80;6.05;;;;;;;13.38;79.18;100553.59;1697411;84;25422;-69
2022/07/25 02:49:08;;;;;;;8.05;7.10;;;;;;;13.33;79.09;100550.21;1697513;84;29643;-69
2022/07/25 02:51:35;;;;;;;7.33;6.55;;;;;;;13.31;79.12;100550.50;1697436;84;25682;-69
2022/07/25 02:54:01;;;;;;;7.33;6.62;;;;;;;13.29;79.07;100556.03;1697531;84;25592;-69
2022/07/25 02:56:27;;;;;;;8.18;6.62;;;;;;;13.27;79.07;100559.86;1697515;84;27336;-69
2022/07/25 02:58:53;;;;;;;8.40;6.53;;;;;;;13.26;79.07;100556.09;1697438;84;25777;-69
2022/07/25 03:01:19;;;;;;;7.05;6.37;;;;;;;13.24;79.47;100552.34;1697528;84;25458;-69
2022/07/25 03:03:45;;;;;;;7.78;6.95;;;;;;;13.33;79.55;100566.52;1697468;84;26436;-69
2022/07/25 03:06:11;;;;;;;7.75;6.87;;;;;;;13.23;79.46;100556.77;1697561;84;25609;-69
2022/07/25 03:08:37;;;;;;;7.80;6.85;;;;;;;13.22;79.58;100560.59;1697604;84;27338;-69
2022/07/25 03:11:04;;;;;;;7.80;7.00;;;;;;;13.21;79.60;100561.16;1700115;84;25418;-69
2022/07/25 03:13:32;;;;;;;8.40;7.10;;;;;;;13.21;79.70;100565.23;1707358;83;25550;-69
2022/07/25 03:15:58;;;;;;;7.70;6.97;;;;;;;13.21;79.77;100563.05;1707320;83;25620;-69
2022/07/25 03:18:24;;;;;;;9.15;7.70;;;;;;;13.20;79.84;100563.62;1707363;84;25621;-69
2022/07/25 03:20:50;;;;;;;6.95;6.25;;;;;;;13.20;79.72;100564.98;1707350;83;27349;-69
2022/07/25 03:23:16;;;;;;;6.92;6.03;;;;;;;13.19;79.75;100563.37;1707289;84;25467;-69
2022/07/25 03:25:42;;;;;;;6.35;5.75;;;;;;;13.21;79.79;100560.33;1707311;84;25455;-69
2022/07/25 03:28:08;;;;;;;6.97;5.87;;;;;;;13.19;79.63;100557.94;1707341;84;25645;-69
2022/07/25 03:30:35;;;;;;;6.72;6.03;;;;;;;13.17;79.60;100550.67;1707516;84;25567;-69
2022/07/25 03:33:01;;;;;;;6.72;6.12;;;;;;;13.17;79.77;100558.03;1703729;84;27340;-69
2022/07/25 03:35:28;;;;;;;8.25;6.45;;;;;;;13.15;79.64;100558.34;1707375;84;25760;-69
2022/07/25 03:37:54;;;;;;;7.40;6.33;;;;;;;13.15;79.77;100558.92;1707494;83;25424;-69
2022/07/25 03:40:23;;;;;;;7.90;6.33;;;;;;;13.14;79.87;100557.30;1707454;83;25657;-69
2022/07/25 03:42:49;;;;;;;7.62;6.92;;;;;;;13.13;80.04;100551.08;1707654;84;25581;-69
2022/07/25 03:45:16;;;;;;;8.15;7.12;;;;;;;13.14;80.07;100555.95;1707508;84;27390;-69
2022/07/25 03:47:43;;;;;;;7.75;6.12;;;;;;;13.16;80.21;100561.85;1707478;84;25835;-69
2022/07/25 03:50:10;;;;;;;10.35;6.90;;;;;;;13.14;80.16;100560.02;1689374;84;25454;-69
2022/07/25 03:52:37;;;;;;;8.88;7.50;;;;;;;13.16;80.43;100565.39;1707413;83;25771;-69
2022/07/25 03:55:07;;;;;;;6.95;6.25;;;;;;;13.18;80.50;100563.72;1707483;84;25548;-68
2022/07/25 03:57:33;;;;;;;6.85;5.75;;;;;;;13.21;80.67;100561.69;1707264;83;27300;-68
2022/07/25 03:59:59;;;;;;;7.42;6.15;;;;;;;13.22;80.65;100564.66;1707377;84;25407;-69
2022/07/25 04:02:25;;;;;;;7.42;6.62;;;;;;;13.23;80.97;100559.48;1707471;84;25570;-69
2022/07/25 04:04:52;;;;;;;6.85;6.15;;;;;;;13.27;80.83;100559.06;1707442;83;25608;-69
2022/07/25 04:07:18;;;;;;;7.97;6.75;;;;;;;13.31;80.95;100564.66;1707453;84;25394;-69
2022/07/25 04:09:44;;;;;;;7.72;6.90;;;;;;;13.35;81.15;100558.30;1707455;84;27292;-69
2022/07/25 04:12:10;;;;;;;8.00;7.20;;;;;;;13.39;81.41;100556.52;1707287;84;25686;-69
2022/07/25 04:14:36;;;;;;;11.70;8.70;;;;;;;13.47;81.91;100563.63;1707432;84;25470;-69
2022/07/25 04:17:03;;;;;;;9.75;7.85;;;;;;;13.54;82.29;100557.16;1707420;84;25590;-68
2022/07/25 04:19:29;;;;;;;7.83;6.78;;;;;;;13.61;82.60;100557.46;1707487;83;25483;-68
2022/07/25 04:21:56;;;;;;;10.75;7.17;;;;;;;13.69;82.87;100557.19;1707421;83;27332;-68
2022/07/25 04:24:22;;;;;;;7.90;7.10;;;;;;;13.75;82.78;100558.05;1707352;83;25749;-68
2022/07/25 04:26:48;;;;;;;7.28;6.42;;;;;;;13.83;82.83;100555.09;1707413;83;25607;-69
2022/07/25 04:29:14;;;;;;;9.15;7.20;;;;;;;13.90;83.05;100548.58;1707434;83;25630;-69
2022/07/25 04:31:40;;;;;;;8.80;7.87;;;;;;;13.97;83.01;100544.00;1707584;84;25560;-69
2022/07/25 04:34:06;;;;;;;9.30;8.10;;;;;;;14.08;83.57;100541.72;1707409;84;27389;-69
2022/07/25 04:36:32;;;;;;;11.43;10.10;;;;;;;14.17;84.08;100537.84;1707373;84;33541;-69
2022/07/25 04:38:58;;;;;;;12.60;11.20;;;;;;;14.29;84.80;100540.44;1707426;84;25468;-69
2022/07/25 04:41:24;;;;;;;15.63;12.65;;;;;;;14.43;85.27;100547.01;1707374;84;26336;-69
2022/07/25 04:43:50;;;;;;;16.62;12.93;;;;;;;14.55;85.68;100546.52;1707440;83;25663;-69
2022/07/25 04:46:19;;;;;;;17.12;12.68;;;;;;;14.68;85.65;100551.53;1707404;84;28092;-69
2022/07/25 04:48:46;;;;;;;16.37;10.68;;;;;;;14.81;85.92;100551.02;1706970;83;33512;-68
2022/07/25 04:51:12;;;;;;;14.70;10.98;;;;;;;14.94;85.87;100549.19;1707414;83;25557;-69
2022/07/25 04:53:38;;;;;;;11.22;9.70;;;;;;;15.04;85.67;100542.55;1707375;83;25781;-67
2022/07/25 04:56:06;;;;;;;15.93;13.40;;;;;;;15.16;85.71;100546.69;1707369;83;25439;-67
2022/07/25 04:58:33;;;;;;;12.47;11.03;;;;;;;15.27;85.64;100547.88;1707434;83;27406;-68
2022/07/25 05:00:59;;;;;;;10.32;9.10;;;;;;;15.39;85.58;100544.95;1707328;84;25730;-68
2022/07/25 05:03:25;;;;;;;9.23;8.25;;;;;;;15.53;85.72;100550.92;1707433;83;25665;-68
2022/07/25 05:05:51;;;;;;;9.85;8.73;;;;;;;15.63;85.25;100550.50;1707338;83;25709;-68
2022/07/25 05:08:17;;;;;;;11.18;8.33;;;;;;;15.76;85.34;100545.89;1707423;84;25403;-69
2022/07/25 05:10:43;;;;;;;11.60;7.60;;;;;;;15.90;85.27;100548.87;1707405;83;27419;-69
2022/07/25 05:13:09;;;;;;;9.08;7.10;;;;;;;16.01;84.71;100548.67;1702577;83;25569;-69
2022/07/25 05:15:36;;;;;;;11.33;7.85;;;;;;;16.13;84.48;100550.04;1702162;84;25464;-69
2022/07/25 05:18:02;;;;;;;9.20;6.08;;;;;;;16.24;84.29;100547.10;1702046;83;25725;-69
2022/07/25 05:20:28;;;;;;;7.47;6.65;;;;;;;16.37;83.77;100548.45;1702130;84;25496;-69
2022/07/25 05:22:55;;;;;;;6.47;5.87;;;;;;;16.48;83.46;100532.41;1702080;84;27375;-69
2022/07/25 05:25:21;;;;;;;5.97;5.47;;;;;;;16.60;83.24;100537.30;1701975;84;25452;-68
2022/07/25 05:27:47;;;;;;;6.10;5.50;;;;;;;16.73;82.91;100539.99;1702024;83;25424;-68
2022/07/25 05:30:14;;;;;;;6.95;5.47;;;;;;;16.86;82.32;100538.08;1702065;83;26351;-69
2022/07/25 05:32:40;;;;;;;5.83;5.33;;;;;;;16.97;82.00;100540.53;1702101;84;25594;-69
2022/07/25 05:35:09;;;;;;;6.15;4.87;;;;;;;17.12;81.47;100529.44;1702089;84;27314;-69
2022/07/25 05:37:36;;;;;;;7.50;4.67;;;;;;;17.24;81.15;100528.59;1701991;84;25396;-69
2022/07/25 05:40:05;;;;;;;5.70;4.60;;;;;;;17.41;80.52;100534.34;1702103;84;25445;-69
2022/07/25 05:42:32;;;;;;;5.47;4.50;;;;;;;17.57;80.42;100532.98;1702175;84;25649;-69
2022/07/25 05:44:59;;;;;;;5.90;4.72;;;;;;;17.71;79.68;100536.11;1702116;84;25466;-69
2022/07/25 05:47:25;;;;;;;6.25;4.47;;;;;;;17.87;79.41;100534.20;1702041;83;27367;-69
2022/07/25 05:49:51;;;;;;;7.05;5.00;;;;;;;18.02;78.50;100526.36;1701973;84;25676;-69
2022/07/25 05:52:17;;;;;;;4.80;4.20;;;;;;;18.17;78.26;100518.71;1702092;84;25407;-69
2022/07/25 05:54:44;;;;;;;5.70;4.17;;;;;;;18.35;78.04;100523.80;1702352;84;25652;-69
2022/07/25 05:57:10;;;;;;;6.12;4.92;;;;;;;18.48;77.03;100522.54;1702393;83;25494;-69
2022/07/25 05:59:36;;;;;;;5.53;4.30;;;;;;;18.60;76.15;100519.67;1702401;83;27357;-69
2022/07/25 06:02:04;;;;;;;5.53;4.30;;;;;;;18.77;75.53;100525.91;1702417;84;25603;-69
2022/07/25 06:04:30;;;;;;;4.62;4.22;;;;;;;18.88;75.42;100523.41;1702302;84;25521;-69
2022/07/25 06:06:56;;;;;;;5.30;4.15;;;;;;;19.00;74.64;100523.27;1702292;84;25687;-69
2022/07/25 06:09:23;;;;;;;5.50;4.40;;;;;;;19.15;74.20;100524.36;1702522;83;25554;-69
2022/07/25 06:11:51;;;;;;;4.78;4.28;;;;;;;19.27;74.01;100526.94;1703249;84;27384;-69
2022/07/25 06:14:17;;;;;;;6.30;4.53;;;;;;;19.39;72.99;100517.20;1707510;84;25506;-69
2022/07/25 06:16:43;;;;;;;5.87;4.55;;;;;;;19.50;72.28;100521.50;1707543;83;25558;-69
2022/07/25 06:19:09;;;;;;;4.58;4.17;;;;;;;19.60;72.23;100510.52;1707368;84;25612;-69
2022/07/25 06:21:35;;;;;;;5.08;4.10;;;;;;;19.74;71.92;100504.48;1707412;84;25482;-69
2022/07/25 06:24:03;;;;;;;5.83;4.03;;;;;;;19.87;71.79;100507.84;1707545;84;27371;-69
2022/07/25 06:26:29;;;;;;;6.42;3.92;;;;;;;20.05;71.29;100506.19;1707419;84;25550;-68
2022/07/25 06:28:56;;;;;;;6.15;4.78;;;;;;;20.21;70.58;100510.73;1707508;83;25410;-69
2022/07/25 06:31:22;;;;;;;7.47;4.40;;;;;;;20.36;69.84;100504.87;1707465;83;25640;-68
2022/07/25 06:33:48;;;;;;;4.20;3.77;;;;;;;20.53;70.65;100502.40;1688675;84;25650;-68
2022/07/25 06:36:14;;;;;;;7.05;4.08;;;;;;;20.78;69.92;100498.42;1707368;83;28002;-68
2022/07/25 06:38:41;;;;;;;4.83;3.55;;;;;;;21.00;69.76;100498.09;1707301;84;25717;-68
2022/07/25 06:41:07;;;;;;;4.37;3.37;;;;;;;21.30;70.18;100498.61;1694561;84;25462;-68
2022/07/25 06:43:33;;;;;;;4.95;3.77;;;;;;;21.54;67.57;100493.98;1707345;83;25599;-69
2022/07/25 06:45:59;;;;;;;4.92;3.67;;;;;;;21.67;66.28;100493.10;1707390;83;25422;-68
2022/07/25 06:48:26;;;;;;;4.15;3.70;;;;;;;21.81;66.84;100489.11;1707321;83;27367;-68
2022/07/25 06:50:52;;;;;;;3.72;3.33;;;;;;;22.05;65.93;100486.12;1707365;84;25587;-68
2022/07/25 06:53:19;;;;;;;4.10;3.62;;;;;;;22.30;65.44;100476.09;1707341;84;25552;-68
2022/07/25 06:55:45;;;;;;;5.62;3.65;;;;;;;22.49;64.19;100479.17;1707337;84;25661;-69
2022/07/25 06:58:11;;;;;;;4.35;3.15;;;;;;;22.59;63.40;100474.08;1707386;84;25468;-69
2022/07/25 07:00:38;;;;;;;4.33;3.40;;;;;;;22.84;63.54;100470.84;1707370;84;28065;-69
2022/07/25 07:03:04;;;;;;;4.20;3.30;;;;;;;23.04;62.48;100467.17;1707385;83;25633;-69
2022/07/25 07:05:35;;;;;;;3.62;3.30;;;;;;;23.33;62.70;100470.02;1707509;83;25470;-69
2022/07/25 07:08:02;;;;;;;3.90;3.45;;;;;;;23.63;60.75;100468.28;1707456;84;26331;-69
2022/07/25 07:10:29;;;;;;;6.08;3.42;;;;;;;23.84;60.46;100469.48;1707521;84;25473;-69
2022/07/25 07:13:10;;;;;;;5.05;3.50;;;;;;;24.05;59.93;100465.30;1704660;84;28119;-69
2022/07/25 07:15:38;;;;;;;3.80;3.12;;;;;;;24.30;58.62;100468.63;1702111;84;25538;-68
2022/07/25 07:18:06;;;;;;;3.35;3.05;;;;;;;24.51;58.50;100456.70;1682292;84;25716;-69
2022/07/25 07:20:32;;;;;;;4.40;3.65;;;;;;;24.68;57.07;100464.77;1702147;84;25682;-69
2022/07/25 07:22:58;;;;;;;5.58;3.27;;;;;;;24.61;55.96;100460.66;1702247;83;25629;-69
2022/07/25 07:25:24;;;;;;;3.12;2.70;;;;;;;24.67;57.11;100466.55;1702160;84;28025;-69
2022/07/25 07:27:51;;;;;;;3.52;3.15;;;;;;;24.82;55.69;100470.83;1702027;84;25569;-69
2022/07/25 07:30:20;;;;;;;6.35;3.30;;;;;;;24.80;55.60;100469.84;1702195;84;25616;-69
2022/07/25 07:32:46;;;;;;;6.03;4.03;;;;;;;25.15;56.81;100467.31;1702112;84;25707;-69
2022/07/25 07:35:15;;;;;;;4.10;2.60;;;;;;;25.61;56.57;100470.95;1702192;83;25657;-69
2022/07/25 07:37:43;;;;;;;5.35;3.00;;;;;;;26.09;56.48;100469.56;1702312;83;27325;-69
2022/07/25 07:40:12;;;;;;;3.45;3.08;;;;;;;26.65;55.19;100462.44;1702198;84;25652;-70
2022/07/25 07:42:42;;;;;;;4.35;3.00;;;;;;;27.01;54.40;100461.96;1702280;84;25645;-69
2022/07/25 07:45:23;;;;;;;3.08;2.65;;;;;;;27.37;53.15;100452.36;1702103;84;25634;-69
2022/07/25 07:47:52;;;;;;;2.60;2.40;;;;;;;27.84;52.28;100451.57;1702163;84;25628;-68
2022/07/25 07:50:23;;;;;;;3.75;2.55;;;;;;;27.79;48.21;100447.30;1702122;84;27318;-69
2022/07/25 07:52:55;;;;;;;2.60;2.40;;;;;;;27.45;47.96;100446.07;1702116;84;25638;-69
2022/07/25 07:58:07;;;;;;;4.12;2.05;;;;;;;27.32;48.62;100443.89;1702139;84;25624;-69
2022/07/25 08:00:38;;;;;;;2.75;2.17;;;;;;;27.69;48.12;100439.94;1702209;84;25569;-69
2022/07/25 08:03:07;;;;;;;4.10;2.00;;;;;;;28.11;48.07;100435.62;1702175;83;27218;-69
2022/07/25 08:05:40;;;;;;;2.52;2.33;;;;;;;28.46;46.81;100439.52;1702327;84;25669;-69
2022/07/25 08:08:09;;;;;;;2.60;2.37;;;;;;;28.80;46.44;100433.64;1702131;84;25696;-69
2022/07/25 08:10:39;;;;;;;;;;;;;;;29.20;45.69;100434.16;1704660;84;25717;-69
2022/07/25 08:13:18;;;;;;;3.27;2.40;;;;;;;29.33;43.72;100432.88;1702236;84;25408;-69
2022/07/25 08:15:47;;;;;;;2.70;2.50;;;;;;;29.28;43.62;100434.17;1700207;84;27509;-69
2022/07/25 08:18:15;;;;;;;3.47;2.60;;;;;;;29.47;44.32;100433.91;1700138;83;25658;-70
2022/07/25 08:20:41;;;;;;;2.80;2.35;;;;;;;29.85;43.90;100432.58;1702421;84;25476;-69
2022/07/25 08:23:10;;;;;;;2.47;2.27;;;;;;;30.15;43.34;100430.78;1702326;84;25698;-69
2022/07/25 08:25:36;;;;;;;;;;;;;;;30.36;41.44;100431.43;1705028;84;25484;-69
2022/07/25 08:28:08;;;;;;;6.58;5.10;;;;;;;30.06;40.74;100418.69;1702379;83;27417;-69
2022/07/25 08:30:36;;;;;;;3.17;2.87;;;;;;;30.13;41.06;100419.87;1702413;83;25704;-70
2022/07/25 08:33:14;;;;;;;6.12;2.72;;;;;;;30.44;41.48;100414.62;1702524;84;25546;-69
2022/07/25 08:35:36;;;;;;;2.80;2.45;;;;;;;30.66;40.45;100418.19;1700445;84;25649;-69
2022/07/25 08:38:04;;;;;;;2.65;2.45;;;;;;;30.57;39.59;100418.08;1702392;83;25609;-69
2022/07/25 08:40:33;;;;;;;3.40;2.60;;;;;;;30.72;39.12;100420.61;1702652;84;28060;-69
2022/07/25 08:42:59;;;;;;;3.33;2.22;;;;;;;30.89;39.18;100417.87;1702510;83;25398;-69
2022/07/25 08:45:27;;;;;;;3.08;2.77;;;;;;;31.13;39.09;100412.59;1702334;84;25555;-69
2022/07/25 08:47:55;;;;;;;3.22;2.37;;;;;;;31.30;38.93;100406.27;1702299;84;25691;-69
2022/07/25 08:50:27;;;;;;;4.40;2.15;;;;;;;31.33;38.46;100399.75;1702395;83;25643;-69
2022/07/25 08:52:55;;;;;;;2.75;2.55;;;;;;;31.52;37.84;100403.53;1700122;84;27332;-70
2022/07/25 08:55:24;;;;;;;3.22;2.77;;;;;;;31.54;37.53;100394.10;1700046;84;25596;-69
2022/07/25 08:57:52;;;;;;;2.30;1.98;;;;;;;31.61;37.16;100388.27;1700103;83;25677;-69
2022/07/25 09:00:23;;;;;;;3.40;2.45;;;;;;;31.75;37.16;100391.17;1701949;84;26364;-71
2022/07/25 09:03:02;;;;;;;4.25;2.20;;;;;;;31.95;36.17;100389.47;1702412;84;25397;-69
2022/07/25 09:05:30;;;;;;;3.05;2.35;;;;;;;31.97;36.63;100382.80;1702444;84;27319;-69
2022/07/25 09:07:59;;;;;;;;;;;;;;;32.33;36.01;100391.30;1704735;84;25762;-70
2022/07/25 09:10:27;;;;;;;;;;;;;;;32.44;35.12;100383.28;1703987;84;25758;-69
2022/07/25 09:13:01;;;;;;;2.40;2.20;;;;;;;32.44;35.15;100388.08;1702430;84;25675;-69
2022/07/25 09:15:31;;;;;;;2.58;2.33;;;;;;;32.55;34.39;100385.66;1702156;84;25615;-69
2022/07/25 09:18:00;;;;;;;4.60;2.10;;;;;;;32.44;34.08;100387.48;1701255;84;27297;-69
2022/07/25 09:20:51;;;;;;;2.58;2.37;;;;;;;32.30;34.02;100381.01;1702015;84;25445;-69
2022/07/25 09:23:36;;;;;;;3.00;2.25;;;;;;;32.63;34.15;100381.38;1698430;84;25552;-69
2022/07/25 09:26:13;;;;;;;2.17;1.98;;;;;;;32.63;34.15;100381.38;1702099;84;25634;-69
2022/07/25 09:28:43;;;;;;;5.35;2.75;;;;;;;33.13;34.47;100382.17;1702156;83;25651;-69
2022/07/25 09:31:12;;;;;;;4.90;2.70;;;;;;;33.40;33.26;100379.27;1702073;84;27285;-69
2022/07/25 09:33:51;;;;;;;2.17;1.98;;;;;;;33.48;32.81;100377.73;1702127;83;34287;-69
2022/07/25 09:36:18;;;;;;;3.12;2.90;;;;;;;33.81;32.76;100379.94;1702096;84;25424;-70
2022/07/25 09:39:01;;;;;;;2.72;2.52;;;;;;;34.35;32.76;100379.58;1701984;84;25617;-70
2022/07/25 09:41:39;;;;;;;3.05;2.52;;;;;;;34.82;32.28;100377.38;1702188;84;25561;-70
2022/07/25 09:44:29;;;;;;;2.65;2.45;;;;;;;34.87;30.72;100360.67;1702306;84;28356;-69
2022/07/25 09:46:53;;;;;;;2.22;2.02;;;;;;;34.80;31.40;100366.63;1701539;84;25610;-69
2022/07/25 09:49:19;;;;;;;2.22;1.92;;;;;;;34.86;30.77;100360.52;1702040;84;25604;-68
2022/07/25 09:51:46;;;;;;;2.47;2.27;;;;;;;34.94;30.35;100366.55;1702010;83;25650;-68
2022/07/25 09:54:13;;;;;;;3.27;2.08;;;;;;;34.78;30.05;100365.69;1702086;84;25640;-69
2022/07/25 09:56:39;;;;;;;3.22;2.55;;;;;;;34.66;30.47;100358.87;1702038;84;27881;-69
2022/07/25 09:59:07;;;;;;;2.50;2.30;;;;;;;35.02;30.84;100351.53;1702000;83;25436;-70
2022/07/25 10:01:44;;;;;;;3.65;2.27;;;;;;;35.46;30.35;100348.13;1702176;84;35045;-69
2022/07/25 10:04:25;;;;;;;3.87;2.58;;;;;;;35.33;29.76;100349.16;1681583;84;26225;-68
2022/07/25 10:07:08;;;;;;;2.77;2.47;;;;;;;35.36;29.55;100353.03;1702098;84;25434;-69
2022/07/25 10:09:44;;;;;;;3.62;2.30;;;;;;;35.44;29.49;100344.38;1702123;83;27898;-68
2022/07/25 10:12:14;;;;;;;2.45;2.25;;;;;;;35.43;29.13;100338.59;1701113;84;25517;-69
2022/07/25 10:14:40;;;;;;;2.77;2.58;;;;;;;35.70;28.92;100343.20;1682029;84;25476;-69
2022/07/25 10:17:08;;;;;;;2.27;2.08;;;;;;;35.79;29.05;100343.02;1702011;83;25625;-69
2022/07/25 10:19:45;;;;;;;2.65;2.45;;;;;;;35.75;28.39;100344.61;1702157;84;25619;-69
2022/07/25 10:22:12;;;;;;;2.70;2.50;;;;;;;35.83;28.77;100350.65;1702063;84;27440;-69
2022/07/25 10:24:43;;;;;;;2.70;2.47;;;;;;;36.03;28.75;100335.88;1701981;84;25488;-69
2022/07/25 10:27:14;;;;;;;3.52;2.20;;;;;;;36.38;28.94;100338.03;1701764;84;25476;-69
2022/07/25 10:29:41;;;;;;;2.37;2.17;;;;;;;36.75;28.64;100333.37;1700489;84;25618;-70
2022/07/25 10:32:11;;;;;;;3.15;2.22;;;;;;;37.14;28.44;100333.88;1702149;84;25554;-68
2022/07/25 10:34:43;;;;;;;3.17;2.47;;;;;;;37.56;27.34;100328.98;1702034;84;27876;-68
2022/07/25 10:37:14;;;;;;;2.27;2.08;;;;;;;37.50;26.53;100329.58;1699605;84;25393;-68
2022/07/25 10:39:44;;;;;;;2.22;2.02;;;;;;;37.36;26.58;100315.72;1702225;84;25538;-68
2022/07/25 10:42:17;;;;;;;2.58;2.37;;;;;;;37.35;26.25;100322.62;1702238;84;25616;-68
2022/07/25 10:44:51;;;;;;;3.83;2.10;;;;;;;37.46;26.35;100321.95;1702395;83;25553;-68
2022/07/25 10:47:21;;;;;;;2.17;2.08;;;;;;;37.41;26.46;100310.77;1702244;84;27390;-68
2022/07/25 10:49:48;;;;;;;3.75;2.08;;;;;;;37.32;26.47;100315.14;1702123;84;27145;-68
2022/07/25 10:52:17;;;;;;;2.12;2.00;;;;;;;37.21;26.70;100305.93;1682638;84;25615;-69
2022/07/25 10:54:57;;;;;;;5.08;2.00;;;;;;;37.48;26.19;100294.81;1702192;84;25678;-69
2022/07/25 10:57:23;;;;;;;2.27;2.08;;;;;;;37.81;26.38;100303.49;1701945;84;25559;-69
2022/07/25 10:59:51;;;;;;;3.95;3.10;;;;;;;37.87;25.57;100297.27;1702187;84;27330;-70
2022/07/25 11:02:18;;;;;;;2.27;1.87;;;;;;;37.70;25.33;100288.66;1702124;84;25561;-69
2022/07/25 11:05:01;;;;;;;4.05;2.17;;;;;;;37.59;25.16;100283.51;1702480;83;25572;-69
2022/07/25 11:07:34;;;;;;;2.10;2.00;;;;;;;37.04;24.07;100282.38;1700111;84;26095;-69
2022/07/25 11:10:00;;;;;;;2.15;1.92;;;;;;;36.33;24.98;100285.98;1701596;84;25450;-69
2022/07/25 11:12:28;;;;;;;2.45;2.10;;;;;;;35.83;25.21;100285.30;1702230;83;27280;-69
2022/07/25 11:15:04;;;;;;;3.10;2.25;;;;;;;35.80;25.75;100281.28;1702126;84;25683;-69
2022/07/25 11:17:31;;;;;;;2.47;2.27;;;;;;;35.67;25.93;100277.30;1702288;84;25638;-69
2022/07/25 11:20:02;;;;;;;2.37;2.15;;;;;;;35.57;25.88;100278.05;1702178;84;25695;-70
2022/07/25 11:22:30;;;;;;;2.90;1.90;;;;;;;35.66;26.96;100269.50;1702247;84;25401;-70
2022/07/25 11:24:58;;;;;;;2.17;2.08;;;;;;;36.17;26.81;100271.02;1702285;84;27853;-69
2022/07/25 11:27:32;;;;;;;3.22;2.12;;;;;;;36.67;25.72;100269.58;1702172;84;33208;-69
2022/07/25 11:30:20;;;;;;;3.12;2.20;;;;;;;36.56;25.25;100266.63;1702132;83;25460;-69